sensor_id;sensor_type;location;lat;lon;timestamp;temperature;humidity
47604;DHT22;33326;51.116;6.900;2022-11-06T00:01:43;9.60;99.90
47604;DHT22;33326;51.116;6.900;2022-11-06T00:06:44;9.60;99.90
47604;DHT22;33326;51.116;6.900;2022-11-06T00:11:50;9.60;99.90
47604;DHT22;33326;51.116;6.900;2022-11-06T00:16:53;9.60;99.90
47604;DHT22;33326;51.116;6.900;2022-11-06T00:21:57;9.60;99.90
47604;DHT22;33326;51.116;6.900;2022-11-06T00:27:00;9.50;99.90
47604;DHT22;33326;51.116;6.900;2022-11-06T00:32:02;9.50;99.90
47604;DHT22;33326;51.116;6.900;2022-11-06T00:37:04;9.50;99.90
47604;DHT22;33326;51.116;6.900;2022-11-06T00:42:07;9.50;99.90
47604;DHT22;33326;51.116;6.900;2022-11-06T00:47:09;9.40;99.90
47604;DHT22;33326;51.116;6.900;2022-11-06T00:52:11;9.40;99.90
47604;DHT22;33326;51.116;6.900;2022-11-06T00:57:14;9.40;99.90
47604;DHT22;33326;51.116;6.900;2022-11-06T01:02:16;9.30;99.90
47604;DHT22;33326;51.116;6.900;2022-11-06T01:07:19;9.30;99.90
47604;DHT22;33326;51.116;6.900;2022-11-06T01:12:22;9.20;99.90
47604;DHT22;33326;51.116;6.900;2022-11-06T01:17:23;9.20;99.90
47604;DHT22;33326;51.116;6.900;2022-11-06T01:22:25;9.20;99.90
47604;DHT22;33326;51.116;6.900;2022-11-06T01:27:28;9.20;99.90
47604;DHT22;33326;51.116;6.900;2022-11-06T01:32:30;9.20;99.90
47604;DHT22;33326;51.116;6.900;2022-11-06T01:37:32;9.20;99.90
47604;DHT22;33326;51.116;6.900;2022-11-06T01:42:35;9.20;99.90
47604;DHT22;33326;51.116;6.900;2022-11-06T01:47:37;9.20;99.90
47604;DHT22;33326;51.116;6.900;2022-11-06T01:52:39;9.20;99.90
47604;DHT22;33326;51.116;6.900;2022-11-06T01:57:42;9.20;99.90
47604;DHT22;33326;51.116;6.900;2022-11-06T02:02:44;9.20;99.90
47604;DHT22;33326;51.116;6.900;2022-11-06T02:07:47;9.20;99.90
47604;DHT22;33326;51.116;6.900;2022-11-06T02:13:02;9.20;99.90
47604;DHT22;33326;51.116;6.900;2022-11-06T02:18:19;9.10;99.90
47604;DHT22;33326;51.116;6.900;2022-11-06T02:23:44;9.00;99.90
47604;DHT22;33326;51.116;6.900;2022-11-06T02:28:56;9.10;99.90
47604;DHT22;33326;51.116;6.900;2022-11-06T02:34:02;9.10;99.90
47604;DHT22;33326;51.116;6.900;2022-11-06T02:39:09;9.10;99.90
47604;DHT22;33326;51.116;6.900;2022-11-06T02:44:17;9.20;99.90
47604;DHT22;33326;51.116;6.900;2022-11-06T02:49:25;9.10;99.90
47604;DHT22;33326;51.116;6.900;2022-11-06T02:54:31;9.10;99.90
47604;DHT22;33326;51.116;6.900;2022-11-06T02:59:43;9.10;99.90
47604;DHT22;33326;51.116;6.900;2022-11-06T03:04:46;9.10;99.90
47604;DHT22;33326;51.116;6.900;2022-11-06T03:09:50;8.90;99.90
47604;DHT22;33326;51.116;6.900;2022-11-06T03:14:57;8.90;99.90
47604;DHT22;33326;51.116;6.900;2022-11-06T03:20:07;8.90;99.90
47604;DHT22;33326;51.116;6.900;2022-11-06T03:25:12;8.90;99.90
47604;DHT22;33326;51.116;6.900;2022-11-06T03:30:16;8.90;99.90
47604;DHT22;33326;51.116;6.900;2022-11-06T03:35:21;8.80;99.90
47604;DHT22;33326;51.116;6.900;2022-11-06T03:40:27;8.90;99.90
47604;DHT22;33326;51.116;6.900;2022-11-06T03:45:32;8.90;99.90
47604;DHT22;33326;51.116;6.900;2022-11-06T03:50:39;8.90;99.90
47604;DHT22;33326;51.116;6.900;2022-11-06T03:55:43;8.80;99.90
47604;DHT22;33326;51.116;6.900;2022-11-06T04:00:49;8.90;99.90
47604;DHT22;33326;51.116;6.900;2022-11-06T04:05:55;8.80;99.90
47604;DHT22;33326;51.116;6.900;2022-11-06T04:11:01;8.80;99.90
47604;DHT22;33326;51.116;6.900;2022-11-06T04:16:23;8.80;99.90
47604;DHT22;33326;51.116;6.900;2022-11-06T04:21:32;8.80;99.90
47604;DHT22;33326;51.116;6.900;2022-11-06T04:26:49;8.80;99.90
47604;DHT22;33326;51.116;6.900;2022-11-06T04:32:03;8.80;99.90
47604;DHT22;33326;51.116;6.900;2022-11-06T04:37:10;8.80;99.90
47604;DHT22;33326;51.116;6.900;2022-11-06T04:42:17;8.70;99.90
47604;DHT22;33326;51.116;6.900;2022-11-06T04:47:26;8.70;99.90
47604;DHT22;33326;51.116;6.900;2022-11-06T04:52:28;8.70;99.90
47604;DHT22;33326;51.116;6.900;2022-11-06T04:57:30;8.80;99.90
47604;DHT22;33326;51.116;6.900;2022-11-06T05:02:34;8.70;99.90
47604;DHT22;33326;51.116;6.900;2022-11-06T05:07:35;8.70;99.90
47604;DHT22;33326;51.116;6.900;2022-11-06T05:12:37;8.70;99.90
47604;DHT22;33326;51.116;6.900;2022-11-06T05:17:40;8.60;99.90
47604;DHT22;33326;51.116;6.900;2022-11-06T05:22:42;8.70;99.90
47604;DHT22;33326;51.116;6.900;2022-11-06T05:28:00;8.60;99.90
47604;DHT22;33326;51.116;6.900;2022-11-06T05:33:03;8.60;99.90
47604;DHT22;33326;51.116;6.900;2022-11-06T05:38:05;8.70;99.90
47604;DHT22;33326;51.116;6.900;2022-11-06T05:43:07;8.60;99.90
47604;DHT22;33326;51.116;6.900;2022-11-06T05:48:10;8.60;99.90
47604;DHT22;33326;51.116;6.900;2022-11-06T05:53:12;8.60;99.90
47604;DHT22;33326;51.116;6.900;2022-11-06T05:58:14;8.60;99.90
47604;DHT22;33326;51.116;6.900;2022-11-06T06:03:17;8.70;99.90
47604;DHT22;33326;51.116;6.900;2022-11-06T06:08:20;8.70;99.90
47604;DHT22;33326;51.116;6.900;2022-11-06T06:13:22;8.70;99.90
47604;DHT22;33326;51.116;6.900;2022-11-06T06:18:25;8.70;99.90
47604;DHT22;33326;51.116;6.900;2022-11-06T06:23:27;8.70;99.90
47604;DHT22;33326;51.116;6.900;2022-11-06T06:28:29;8.80;99.90
47604;DHT22;33326;51.116;6.900;2022-11-06T06:33:32;8.70;99.90
47604;DHT22;33326;51.116;6.900;2022-11-06T06:38:34;8.80;99.90
47604;DHT22;33326;51.116;6.900;2022-11-06T06:43:36;8.80;99.90
47604;DHT22;33326;51.116;6.900;2022-11-06T06:48:39;8.80;99.90
47604;DHT22;33326;51.116;6.900;2022-11-06T06:53:41;8.80;99.90
47604;DHT22;33326;51.116;6.900;2022-11-06T06:58:43;8.90;99.90
47604;DHT22;33326;51.116;6.900;2022-11-06T07:03:47;8.90;99.90
47604;DHT22;33326;51.116;6.900;2022-11-06T07:08:49;8.90;99.90
47604;DHT22;33326;51.116;6.900;2022-11-06T07:13:50;9.00;99.90
47604;DHT22;33326;51.116;6.900;2022-11-06T07:18:54;9.00;99.90
47604;DHT22;33326;51.116;6.900;2022-11-06T07:23:55;9.00;99.90
47604;DHT22;33326;51.116;6.900;2022-11-06T07:28:57;9.10;99.90
47604;DHT22;33326;51.116;6.900;2022-11-06T07:34:00;9.20;99.90
47604;DHT22;33326;51.116;6.900;2022-11-06T07:39:02;9.20;99.90
47604;DHT22;33326;51.116;6.900;2022-11-06T07:44:04;9.30;99.90
47604;DHT22;33326;51.116;6.900;2022-11-06T07:49:08;9.40;99.90
47604;DHT22;33326;51.116;6.900;2022-11-06T07:54:11;9.50;99.90
47604;DHT22;33326;51.116;6.900;2022-11-06T07:59:13;9.60;99.90
47604;DHT22;33326;51.116;6.900;2022-11-06T08:04:16;9.80;99.90
47604;DHT22;33326;51.116;6.900;2022-11-06T08:09:18;9.90;99.90
47604;DHT22;33326;51.116;6.900;2022-11-06T08:14:20;10.00;99.90
47604;DHT22;33326;51.116;6.900;2022-11-06T08:19:23;10.10;99.90
47604;DHT22;33326;51.116;6.900;2022-11-06T08:24:25;10.00;99.90
47604;DHT22;33326;51.116;6.900;2022-11-06T08:29:27;10.00;99.90
47604;DHT22;33326;51.116;6.900;2022-11-06T08:34:33;10.10;99.90
47604;DHT22;33326;51.116;6.900;2022-11-06T08:39:35;10.30;99.90
47604;DHT22;33326;51.116;6.900;2022-11-06T08:44:36;10.40;99.90
47604;DHT22;33326;51.116;6.900;2022-11-06T08:49:40;10.70;99.90
47604;DHT22;33326;51.116;6.900;2022-11-06T08:54:41;10.90;99.90
47604;DHT22;33326;51.116;6.900;2022-11-06T08:59:43;11.10;99.90
47604;DHT22;33326;51.116;6.900;2022-11-06T09:04:46;11.10;99.90
47604;DHT22;33326;51.116;6.900;2022-11-06T09:09:48;11.20;99.90
47604;DHT22;33326;51.116;6.900;2022-11-06T09:14:50;11.40;99.90
47604;DHT22;33326;51.116;6.900;2022-11-06T09:19:53;11.50;99.90
47604;DHT22;33326;51.116;6.900;2022-11-06T09:24:55;11.70;99.90
47604;DHT22;33326;51.116;6.900;2022-11-06T09:29:56;11.80;99.90
47604;DHT22;33326;51.116;6.900;2022-11-06T09:35:00;11.80;99.90
47604;DHT22;33326;51.116;6.900;2022-11-06T09:40:02;12.00;99.90
47604;DHT22;33326;51.116;6.900;2022-11-06T09:45:10;12.20;99.90
47604;DHT22;33326;51.116;6.900;2022-11-06T09:50:17;12.20;99.90
47604;DHT22;33326;51.116;6.900;2022-11-06T09:55:22;12.20;99.90
47604;DHT22;33326;51.116;6.900;2022-11-06T10:00:26;12.30;99.90
47604;DHT22;33326;51.116;6.900;2022-11-06T10:05:31;12.50;99.90
47604;DHT22;33326;51.116;6.900;2022-11-06T10:10:38;12.60;99.90
47604;DHT22;33326;51.116;6.900;2022-11-06T10:15:47;12.80;99.90
47604;DHT22;33326;51.116;6.900;2022-11-06T10:20:53;12.90;99.90
47604;DHT22;33326;51.116;6.900;2022-11-06T10:26:03;13.00;99.90
47604;DHT22;33326;51.116;6.900;2022-11-06T10:31:15;13.10;99.90
47604;DHT22;33326;51.116;6.900;2022-11-06T10:36:22;13.30;99.90
47604;DHT22;33326;51.116;6.900;2022-11-06T10:41:29;13.50;99.90
47604;DHT22;33326;51.116;6.900;2022-11-06T10:46:35;13.70;99.90
47604;DHT22;33326;51.116;6.900;2022-11-06T10:51:50;13.50;99.90
47604;DHT22;33326;51.116;6.900;2022-11-06T10:57:06;13.60;99.90
47604;DHT22;33326;51.116;6.900;2022-11-06T11:02:22;13.50;99.90
47604;DHT22;33326;51.116;6.900;2022-11-06T11:07:29;13.30;99.90
47604;DHT22;33326;51.116;6.900;2022-11-06T11:12:32;13.20;99.90
47604;DHT22;33326;51.116;6.900;2022-11-06T11:17:33;13.20;99.90
47604;DHT22;33326;51.116;6.900;2022-11-06T11:22:37;13.10;99.90
47604;DHT22;33326;51.116;6.900;2022-11-06T11:27:43;13.10;99.90
47604;DHT22;33326;51.116;6.900;2022-11-06T11:32:45;13.10;99.90
47604;DHT22;33326;51.116;6.900;2022-11-06T11:43:39;13.30;99.90
47604;DHT22;33326;51.116;6.900;2022-11-06T11:48:43;13.60;99.90
47604;DHT22;33326;51.116;6.900;2022-11-06T11:53:46;13.70;99.90
47604;DHT22;33326;51.116;6.900;2022-11-06T11:58:51;14.20;99.90
47604;DHT22;33326;51.116;6.900;2022-11-06T12:03:54;14.50;99.90
47604;DHT22;33326;51.116;6.900;2022-11-06T12:08:56;15.10;99.90
47604;DHT22;33326;51.116;6.900;2022-11-06T12:14:25;15.20;99.90
47604;DHT22;33326;51.116;6.900;2022-11-06T12:19:30;15.00;99.90
47604;DHT22;33326;51.116;6.900;2022-11-06T12:24:38;14.80;99.90
47604;DHT22;33326;51.116;6.900;2022-11-06T12:29:46;14.50;99.90
47604;DHT22;33326;51.116;6.900;2022-11-06T12:34:53;14.10;99.90
47604;DHT22;33326;51.116;6.900;2022-11-06T12:40:03;14.00;99.90
47604;DHT22;33326;51.116;6.900;2022-11-06T12:45:12;13.90;99.90
47604;DHT22;33326;51.116;6.900;2022-11-06T12:50:23;13.80;99.90
47604;DHT22;33326;51.116;6.900;2022-11-06T13:01:19;14.40;99.90
47604;DHT22;33326;51.116;6.900;2022-11-06T13:06:36;15.70;99.90
47604;DHT22;33326;51.116;6.900;2022-11-06T13:11:44;15.90;99.90
47604;DHT22;33326;51.116;6.900;2022-11-06T13:16:55;15.40;99.90
47604;DHT22;33326;51.116;6.900;2022-11-06T13:22:10;14.90;99.90
47604;DHT22;33326;51.116;6.900;2022-11-06T13:27:24;14.50;99.90
47604;DHT22;33326;51.116;6.900;2022-11-06T13:32:31;14.30;99.90
47604;DHT22;33326;51.116;6.900;2022-11-06T13:37:37;14.20;99.90
47604;DHT22;33326;51.116;6.900;2022-11-06T13:42:44;14.20;99.90
47604;DHT22;33326;51.116;6.900;2022-11-06T13:47:58;14.30;99.90
47604;DHT22;33326;51.116;6.900;2022-11-06T13:53:06;14.40;99.90
47604;DHT22;33326;51.116;6.900;2022-11-06T13:58:23;14.30;99.90
47604;DHT22;33326;51.116;6.900;2022-11-06T14:09:18;14.00;99.90
47604;DHT22;33326;51.116;6.900;2022-11-06T14:14:26;13.80;99.90
47604;DHT22;33326;51.116;6.900;2022-11-06T14:19:29;13.70;99.90
47604;DHT22;33326;51.116;6.900;2022-11-06T14:24:32;13.60;99.90
47604;DHT22;33326;51.116;6.900;2022-11-06T14:29:56;13.50;99.90
47604;DHT22;33326;51.116;6.900;2022-11-06T14:40:48;13.40;99.90
47604;DHT22;33326;51.116;6.900;2022-11-06T14:45:53;13.30;99.90
47604;DHT22;33326;51.116;6.900;2022-11-06T14:50:57;13.30;99.90
47604;DHT22;33326;51.116;6.900;2022-11-06T14:56:02;13.20;99.90
47604;DHT22;33326;51.116;6.900;2022-11-06T15:01:13;13.20;99.90
47604;DHT22;33326;51.116;6.900;2022-11-06T15:06:35;13.10;99.90
47604;DHT22;33326;51.116;6.900;2022-11-06T15:11:58;13.00;99.90
47604;DHT22;33326;51.116;6.900;2022-11-06T15:17:04;12.90;99.90
47604;DHT22;33326;51.116;6.900;2022-11-06T15:22:30;12.80;99.90
47604;DHT22;33326;51.116;6.900;2022-11-06T15:27:39;12.60;99.90
47604;DHT22;33326;51.116;6.900;2022-11-06T15:32:43;12.60;99.90
47604;DHT22;33326;51.116;6.900;2022-11-06T15:37:49;12.40;99.90
47604;DHT22;33326;51.116;6.900;2022-11-06T15:42:54;12.30;99.90
47604;DHT22;33326;51.116;6.900;2022-11-06T15:47:57;12.20;99.90
47604;DHT22;33326;51.116;6.900;2022-11-06T15:53:17;12.00;99.90
47604;DHT22;33326;51.116;6.900;2022-11-06T15:58:29;11.90;99.90
47604;DHT22;33326;51.116;6.900;2022-11-06T16:03:42;11.80;99.90
47604;DHT22;33326;51.116;6.900;2022-11-06T16:08:46;11.70;99.90
47604;DHT22;33326;51.116;6.900;2022-11-06T16:13:50;11.50;99.90
47604;DHT22;33326;51.116;6.900;2022-11-06T16:18:52;11.40;99.90
47604;DHT22;33326;51.116;6.900;2022-11-06T16:23:57;11.10;99.90
47604;DHT22;33326;51.116;6.900;2022-11-06T16:29:01;11.10;99.90
47604;DHT22;33326;51.116;6.900;2022-11-06T16:34:06;11.00;99.90
47604;DHT22;33326;51.116;6.900;2022-11-06T16:39:30;10.90;99.90
47604;DHT22;33326;51.116;6.900;2022-11-06T16:44:44;10.90;99.90
47604;DHT22;33326;51.116;6.900;2022-11-06T16:49:48;10.80;99.90
47604;DHT22;33326;51.116;6.900;2022-11-06T16:54:52;10.80;99.90
47604;DHT22;33326;51.116;6.900;2022-11-06T16:59:59;10.80;99.90
47604;DHT22;33326;51.116;6.900;2022-11-06T17:05:11;10.90;99.90
47604;DHT22;33326;51.116;6.900;2022-11-06T17:10:35;10.90;99.90
47604;DHT22;33326;51.116;6.900;2022-11-06T17:15:39;10.90;99.90
47604;DHT22;33326;51.116;6.900;2022-11-06T17:20:44;10.90;99.90
47604;DHT22;33326;51.116;6.900;2022-11-06T17:25:48;11.00;99.90
47604;DHT22;33326;51.116;6.900;2022-11-06T17:30:52;11.00;99.90
47604;DHT22;33326;51.116;6.900;2022-11-06T17:35:54;10.90;99.90
47604;DHT22;33326;51.116;6.900;2022-11-06T17:40:56;10.80;99.90
47604;DHT22;33326;51.116;6.900;2022-11-06T17:46:00;10.70;99.90
47604;DHT22;33326;51.116;6.900;2022-11-06T17:51:02;10.60;99.90
47604;DHT22;33326;51.116;6.900;2022-11-06T17:56:22;10.50;99.90
47604;DHT22;33326;51.116;6.900;2022-11-06T18:01:25;10.50;99.90
47604;DHT22;33326;51.116;6.900;2022-11-06T18:06:27;10.60;99.90
47604;DHT22;33326;51.116;6.900;2022-11-06T18:11:29;10.50;99.90
47604;DHT22;33326;51.116;6.900;2022-11-06T18:16:35;10.50;99.90
47604;DHT22;33326;51.116;6.900;2022-11-06T18:21:37;10.40;99.90
47604;DHT22;33326;51.116;6.900;2022-11-06T18:26:39;10.40;99.90
47604;DHT22;33326;51.116;6.900;2022-11-06T18:31:43;10.40;99.90
47604;DHT22;33326;51.116;6.900;2022-11-06T18:36:44;10.50;99.90
47604;DHT22;33326;51.116;6.900;2022-11-06T18:41:46;10.50;99.90
47604;DHT22;33326;51.116;6.900;2022-11-06T18:46:50;10.60;99.90
47604;DHT22;33326;51.116;6.900;2022-11-06T18:51:52;10.60;99.90
47604;DHT22;33326;51.116;6.900;2022-11-06T18:56:53;10.60;99.90
47604;DHT22;33326;51.116;6.900;2022-11-06T19:01:57;10.60;99.90
47604;DHT22;33326;51.116;6.900;2022-11-06T19:06:58;10.70;99.90
47604;DHT22;33326;51.116;6.900;2022-11-06T19:12:00;10.70;99.90
47604;DHT22;33326;51.116;6.900;2022-11-06T19:17:03;10.80;99.90
47604;DHT22;33326;51.116;6.900;2022-11-06T19:22:05;10.80;99.90
47604;DHT22;33326;51.116;6.900;2022-11-06T19:27:07;10.90;99.90
47604;DHT22;33326;51.116;6.900;2022-11-06T19:32:10;10.90;99.90
47604;DHT22;33326;51.116;6.900;2022-11-06T19:37:12;11.00;99.90
47604;DHT22;33326;51.116;6.900;2022-11-06T19:42:14;10.90;99.90
47604;DHT22;33326;51.116;6.900;2022-11-06T19:47:17;11.00;99.90
47604;DHT22;33326;51.116;6.900;2022-11-06T19:52:19;11.00;99.90
47604;DHT22;33326;51.116;6.900;2022-11-06T19:57:21;11.00;99.90
47604;DHT22;33326;51.116;6.900;2022-11-06T20:02:24;11.10;99.90
47604;DHT22;33326;51.116;6.900;2022-11-06T20:07:26;11.10;99.90
47604;DHT22;33326;51.116;6.900;2022-11-06T20:12:28;11.10;99.90
47604;DHT22;33326;51.116;6.900;2022-11-06T20:17:31;11.10;99.90
47604;DHT22;33326;51.116;6.900;2022-11-06T20:22:33;11.10;99.90
47604;DHT22;33326;51.116;6.900;2022-11-06T20:27:36;11.20;99.90
47604;DHT22;33326;51.116;6.900;2022-11-06T20:32:39;11.20;99.90
47604;DHT22;33326;51.116;6.900;2022-11-06T20:37:41;11.20;99.90
47604;DHT22;33326;51.116;6.900;2022-11-06T20:42:43;11.20;99.90
47604;DHT22;33326;51.116;6.900;2022-11-06T20:47:46;11.30;99.90
47604;DHT22;33326;51.116;6.900;2022-11-06T20:52:48;11.20;99.90
47604;DHT22;33326;51.116;6.900;2022-11-06T20:57:50;11.20;99.90
47604;DHT22;33326;51.116;6.900;2022-11-06T21:02:53;11.20;99.90
47604;DHT22;33326;51.116;6.900;2022-11-06T21:07:55;11.20;99.90
47604;DHT22;33326;51.116;6.900;2022-11-06T21:12:57;11.20;99.90
47604;DHT22;33326;51.116;6.900;2022-11-06T21:18:01;11.20;99.90
47604;DHT22;33326;51.116;6.900;2022-11-06T21:23:02;11.10;99.90
47604;DHT22;33326;51.116;6.900;2022-11-06T21:28:04;11.10;99.90
47604;DHT22;33326;51.116;6.900;2022-11-06T21:33:07;11.10;99.90
47604;DHT22;33326;51.116;6.900;2022-11-06T21:38:09;11.10;99.90
47604;DHT22;33326;51.116;6.900;2022-11-06T21:43:11;11.10;99.90
47604;DHT22;33326;51.116;6.900;2022-11-06T21:48:14;11.10;99.90
47604;DHT22;33326;51.116;6.900;2022-11-06T21:53:16;11.10;99.90
47604;DHT22;33326;51.116;6.900;2022-11-06T21:58:35;11.10;99.90
47604;DHT22;33326;51.116;6.900;2022-11-06T22:03:38;11.20;99.90
47604;DHT22;33326;51.116;6.900;2022-11-06T22:08:43;11.20;99.90
47604;DHT22;33326;51.116;6.900;2022-11-06T22:13:46;11.20;99.90
47604;DHT22;33326;51.116;6.900;2022-11-06T22:18:49;11.10;99.90
47604;DHT22;33326;51.116;6.900;2022-11-06T22:23:52;11.10;99.90
47604;DHT22;33326;51.116;6.900;2022-11-06T22:28:55;11.10;99.90
47604;DHT22;33326;51.116;6.900;2022-11-06T22:33:59;11.10;99.90
47604;DHT22;33326;51.116;6.900;2022-11-06T22:39:03;11.20;99.90
47604;DHT22;33326;51.116;6.900;2022-11-06T22:44:06;11.30;99.90
47604;DHT22;33326;51.116;6.900;2022-11-06T22:49:09;11.30;99.90
47604;DHT22;33326;51.116;6.900;2022-11-06T22:54:11;11.30;99.90
47604;DHT22;33326;51.116;6.900;2022-11-06T22:59:13;11.40;99.90
47604;DHT22;33326;51.116;6.900;2022-11-06T23:04:16;11.40;99.90
47604;DHT22;33326;51.116;6.900;2022-11-06T23:09:17;11.50;99.90
47604;DHT22;33326;51.116;6.900;2022-11-06T23:14:19;11.60;99.90
47604;DHT22;33326;51.116;6.900;2022-11-06T23:19:23;11.50;99.90
47604;DHT22;33326;51.116;6.900;2022-11-06T23:24:25;11.50;99.90
47604;DHT22;33326;51.116;6.900;2022-11-06T23:29:27;11.50;99.90
47604;DHT22;33326;51.116;6.900;2022-11-06T23:34:30;11.40;99.90
47604;DHT22;33326;51.116;6.900;2022-11-06T23:39:32;11.40;99.90
47604;DHT22;33326;51.116;6.900;2022-11-06T23:44:33;11.40;99.90
47604;DHT22;33326;51.116;6.900;2022-11-06T23:49:54;11.40;99.90
47604;DHT22;33326;51.116;6.900;2022-11-06T23:54:56;11.40;99.90
47604;DHT22;33326;51.116;6.900;2022-11-06T23:59:58;11.40;99.90
